createdAt,value
2019-03-31T00:01:56.643Z,83.30
2019-03-31T00:04:27.918Z,83.80
2019-03-31T00:06:59.142Z,82.60
2019-03-31T00:09:30.588Z,84.10
2019-03-31T00:12:01.823Z,83.90
2019-03-31T00:14:33.171Z,84.60
2019-03-31T00:17:04.499Z,84.60
2019-03-31T00:19:35.744Z,85.00
2019-03-31T00:22:07.123Z,85.20
2019-03-31T00:24:38.365Z,85.90
2019-03-31T00:27:09.546Z,85.10
2019-03-31T00:29:40.811Z,85.80
2019-03-31T00:32:13.353Z,86.30
2019-03-31T00:34:44.601Z,86.20
2019-03-31T00:37:15.879Z,86.80
2019-03-31T00:39:47.127Z,87.30
2019-03-31T00:42:18.331Z,86.90
2019-03-31T00:44:49.585Z,88.10
2019-03-31T00:47:20.819Z,88.40
2019-03-31T00:49:52.081Z,87.80
2019-03-31T00:52:23.333Z,88.10
2019-03-31T00:54:54.497Z,88.30
2019-03-31T00:57:25.776Z,87.60
2019-03-31T00:59:57.028Z,88.00
2019-03-31T01:02:31.029Z,88.40
2019-03-31T01:05:02.659Z,90.00
2019-03-31T01:07:33.899Z,90.10
2019-03-31T01:10:05.518Z,90.00
2019-03-31T01:12:36.836Z,90.30
2019-03-31T01:15:13.847Z,90.40
2019-03-31T01:17:45.461Z,90.30
2019-03-31T01:20:16.684Z,90.40
2019-03-31T01:22:47.965Z,90.40
2019-03-31T01:25:19.713Z,90.40
2019-03-31T01:27:51.009Z,90.50
2019-03-31T01:30:22.758Z,90.90
2019-03-31T01:32:54.348Z,90.70
2019-03-31T01:35:25.739Z,90.80
2019-03-31T01:37:56.993Z,91.10
2019-03-31T01:40:28.287Z,91.10
2019-03-31T01:42:59.548Z,91.00
2019-03-31T01:45:30.720Z,91.20
2019-03-31T01:48:02.080Z,91.50
2019-03-31T01:50:33.377Z,91.50
2019-03-31T01:53:04.654Z,91.80
2019-03-31T01:55:36.069Z,91.80
2019-03-31T01:58:07.373Z,91.80
2019-03-31T02:00:41.334Z,92.00
2019-03-31T02:03:12.617Z,91.60
2019-03-31T02:05:43.920Z,91.90
2019-03-31T02:08:15.291Z,91.90
2019-03-31T02:10:46.501Z,91.80
2019-03-31T02:13:17.739Z,91.80
2019-03-31T02:15:48.993Z,92.00
2019-03-31T02:18:20.180Z,91.80
2019-03-31T02:20:51.404Z,91.90
2019-03-31T02:23:22.651Z,92.10
2019-03-31T02:25:53.861Z,92.20
2019-03-31T02:28:25.095Z,92.10
2019-03-31T02:30:56.343Z,92.10
2019-03-31T02:33:27.522Z,92.30
2019-03-31T02:35:58.773Z,92.40
2019-03-31T02:38:29.933Z,92.60
2019-03-31T02:41:03.712Z,92.70
2019-03-31T02:43:34.925Z,92.50
2019-03-31T02:46:06.190Z,92.60
2019-03-31T02:48:37.395Z,92.70
2019-03-31T02:51:08.807Z,92.70
2019-03-31T02:53:40.171Z,92.80
2019-03-31T02:56:12.817Z,92.80
2019-03-31T02:58:44.172Z,92.80
2019-03-31T03:01:16.725Z,93.10
2019-03-31T03:03:50.564Z,93.00
2019-03-31T03:06:23.387Z,93.20
2019-03-31T03:08:56.700Z,93.30
2019-03-31T03:11:31.301Z,93.20
2019-03-31T03:14:05.353Z,93.20
2019-03-31T03:16:36.601Z,93.60
2019-03-31T03:19:07.860Z,93.60
2019-03-31T03:21:39.109Z,93.60
2019-03-31T03:24:10.389Z,93.80
2019-03-31T03:26:41.638Z,93.90
2019-03-31T03:29:12.868Z,94.00
2019-03-31T03:31:44.105Z,94.50
2019-03-31T03:34:15.332Z,94.50
2019-03-31T03:36:46.550Z,94.50
2019-03-31T03:39:17.779Z,94.30
2019-03-31T03:41:49.027Z,94.50
2019-03-31T03:44:21.516Z,94.60
2019-03-31T03:46:52.762Z,94.60
2019-03-31T03:49:23.972Z,94.60
2019-03-31T03:51:55.236Z,94.60
2019-03-31T03:54:26.461Z,94.70
2019-03-31T03:56:57.683Z,94.60
2019-03-31T03:59:28.892Z,94.70
2019-03-31T04:02:00.106Z,94.80
2019-03-31T04:04:31.332Z,94.90
2019-03-31T04:07:02.577Z,95.00
2019-03-31T04:09:33.788Z,95.00
2019-03-31T04:12:05.069Z,95.20
2019-03-31T04:14:36.295Z,95.10
2019-03-31T04:17:07.525Z,95.50
2019-03-31T04:19:38.735Z,95.70
2019-03-31T04:22:09.980Z,95.90
2019-03-31T04:24:41.223Z,96.00
2019-03-31T04:27:12.518Z,95.90
2019-03-31T04:29:43.743Z,96.00
2019-03-31T04:32:15.139Z,96.10
2019-03-31T04:34:46.749Z,95.90
2019-03-31T04:37:18.066Z,95.90
2019-03-31T04:39:49.903Z,96.00
2019-03-31T04:42:21.321Z,95.80
2019-03-31T04:44:52.712Z,95.70
2019-03-31T04:47:24.071Z,95.60
2019-03-31T04:49:55.458Z,95.80
2019-03-31T04:52:26.704Z,95.80
2019-03-31T04:54:58.239Z,95.80
2019-03-31T04:57:29.487Z,96.00
2019-03-31T05:00:00.749Z,96.30
2019-03-31T05:02:32.407Z,96.40
2019-03-31T05:05:03.805Z,96.40
2019-03-31T05:07:35.528Z,96.50
2019-03-31T05:10:07.738Z,96.80
2019-03-31T05:12:40.117Z,97.10
2019-03-31T05:15:11.570Z,97.20
2019-03-31T05:17:43.256Z,97.30
2019-03-31T05:20:14.670Z,97.00
2019-03-31T05:22:46.389Z,97.00
2019-03-31T05:25:17.807Z,96.90
2019-03-31T05:27:49.519Z,96.80
2019-03-31T05:30:20.823Z,96.70
2019-03-31T05:32:52.415Z,96.70
2019-03-31T05:35:26.889Z,96.70
2019-03-31T05:37:57.489Z,96.70
2019-03-31T05:40:30.708Z,96.60
2019-03-31T05:43:03.069Z,96.50
2019-03-31T05:45:34.367Z,96.50
2019-03-31T05:48:06.200Z,96.30
2019-03-31T05:50:37.703Z,96.10
2019-03-31T05:53:09.379Z,96.00
2019-03-31T05:55:41.013Z,95.90
2019-03-31T05:58:12.652Z,95.60
2019-03-31T06:00:48.055Z,95.60
2019-03-31T06:03:19.333Z,95.20
2019-03-31T06:05:50.711Z,95.10
2019-03-31T06:08:22.323Z,95.20
2019-03-31T06:10:53.786Z,95.10
2019-03-31T06:13:25.105Z,94.60
2019-03-31T06:15:56.780Z,94.50
2019-03-31T06:18:28.446Z,94.60
2019-03-31T06:21:00.318Z,94.30
2019-03-31T06:23:31.895Z,94.10
2019-03-31T06:26:03.175Z,93.60
2019-03-31T06:28:34.829Z,93.00
2019-03-31T06:31:06.135Z,93.00
2019-03-31T06:33:37.370Z,93.20
2019-03-31T06:36:09.299Z,93.10
2019-03-31T06:38:40.887Z,93.00
2019-03-31T06:41:12.611Z,90.80
2019-03-31T06:43:44.084Z,80.90
2019-03-31T06:46:15.486Z,72.00
2019-03-31T06:48:47.209Z,63.40
2019-03-31T06:51:18.887Z,57.50
2019-03-31T06:53:50.402Z,55.30
2019-03-31T06:56:21.691Z,52.50
2019-03-31T06:58:53.501Z,51.60
2019-03-31T07:01:25.043Z,50.30
2019-03-31T07:03:56.543Z,46.80
2019-03-31T07:06:28.249Z,45.50
2019-03-31T07:09:00.611Z,45.00
2019-03-31T07:11:32.105Z,42.80
2019-03-31T07:14:03.679Z,39.70
2019-03-31T07:16:35.148Z,36.90
2019-03-31T07:19:09.842Z,35.50
2019-03-31T07:21:41.293Z,35.00
2019-03-31T07:24:12.727Z,35.90
2019-03-31T07:26:44.564Z,34.90
2019-03-31T07:29:16.433Z,34.60
2019-03-31T07:31:48.245Z,35.40
2019-03-31T07:34:20.743Z,36.50
2019-03-31T07:36:52.560Z,36.80
2019-03-31T07:39:24.272Z,35.90
2019-03-31T07:41:57.647Z,35.20
2019-03-31T07:44:29.582Z,34.20
2019-03-31T07:47:01.049Z,33.00
2019-03-31T07:49:32.528Z,33.00
2019-03-31T07:52:03.788Z,32.10
2019-03-31T07:54:35.055Z,30.10
2019-03-31T07:57:07.175Z,29.60
2019-03-31T07:59:40.063Z,28.90
2019-03-31T08:02:11.446Z,28.60
2019-03-31T08:04:42.728Z,28.20
2019-03-31T08:07:14.020Z,27.90
2019-03-31T08:09:45.314Z,27.70
2019-03-31T08:12:16.823Z,27.70
2019-03-31T08:14:48.619Z,27.80
2019-03-31T08:17:20.578Z,28.70
2019-03-31T08:19:52.200Z,29.30
2019-03-31T08:22:23.522Z,29.10
2019-03-31T08:24:54.774Z,29.40
2019-03-31T08:27:26.041Z,29.10
2019-03-31T08:30:00.745Z,28.80
2019-03-31T08:32:30.432Z,28.00
2019-03-31T08:35:01.899Z,27.30
2019-03-31T08:37:33.122Z,27.20
2019-03-31T08:40:04.531Z,27.10
2019-03-31T08:42:36.583Z,26.60
2019-03-31T08:45:08.331Z,25.80
2019-03-31T08:47:39.876Z,25.60
2019-03-31T08:50:12.128Z,25.00
2019-03-31T08:52:43.392Z,24.80
2019-03-31T08:55:15.379Z,25.40
2019-03-31T08:57:46.612Z,24.50
2019-03-31T09:00:33.130Z,24.70
2019-03-31T09:03:04.493Z,23.50
2019-03-31T09:05:35.732Z,23.30
2019-03-31T09:08:07.168Z,23.30
2019-03-31T09:10:38.495Z,23.20
2019-03-31T09:13:09.811Z,23.30
2019-03-31T09:15:41.084Z,22.70
2019-03-31T09:18:12.331Z,22.50
2019-03-31T09:20:43.605Z,23.00
2019-03-31T09:23:14.882Z,22.00
2019-03-31T09:25:47.802Z,22.70
2019-03-31T09:28:19.440Z,22.30
2019-03-31T09:30:52.851Z,22.30
2019-03-31T09:33:24.716Z,22.50
2019-03-31T09:35:56.322Z,22.60
2019-03-31T09:38:27.677Z,22.20
2019-03-31T09:40:59.462Z,22.00
2019-03-31T09:43:31.120Z,21.20
2019-03-31T09:46:02.712Z,21.00
2019-03-31T09:48:34.352Z,20.90
2019-03-31T09:51:05.874Z,22.20
2019-03-31T09:53:37.289Z,22.50
2019-03-31T09:56:08.707Z,22.10
2019-03-31T09:58:40.504Z,21.20
2019-03-31T10:01:11.815Z,22.40
2019-03-31T10:03:43.086Z,22.20
2019-03-31T10:06:14.374Z,21.90
2019-03-31T10:08:45.817Z,21.90
2019-03-31T10:11:17.081Z,21.60
2019-03-31T10:13:48.366Z,21.40
2019-03-31T10:16:19.648Z,21.40
2019-03-31T10:18:51.143Z,20.70
2019-03-31T10:21:22.616Z,21.10
2019-03-31T10:23:55.373Z,21.40
2019-03-31T10:26:32.152Z,20.80
2019-03-31T10:29:02.700Z,20.90
2019-03-31T10:31:35.255Z,20.80
2019-03-31T10:34:08.398Z,21.00
2019-03-31T10:36:44.799Z,20.40
2019-03-31T10:39:13.591Z,20.70
2019-03-31T10:41:44.858Z,20.80
2019-03-31T10:44:16.573Z,21.10
2019-03-31T10:46:47.984Z,21.40
2019-03-31T10:49:19.293Z,21.70
2019-03-31T10:51:51.332Z,21.50
2019-03-31T10:54:22.774Z,22.30
2019-03-31T10:56:55.273Z,22.60
2019-03-31T10:59:26.752Z,22.10
2019-03-31T11:01:59.028Z,23.00
2019-03-31T11:04:30.309Z,22.00
2019-03-31T11:07:03.487Z,22.10
2019-03-31T11:09:34.740Z,22.60
2019-03-31T11:12:11.096Z,22.40
2019-03-31T11:14:42.372Z,22.10
2019-03-31T11:17:13.895Z,21.70
2019-03-31T11:19:45.196Z,21.90
2019-03-31T11:22:26.672Z,21.20
2019-03-31T11:24:58.250Z,22.10
2019-03-31T11:27:32.807Z,22.90
2019-03-31T11:30:04.451Z,25.50
2019-03-31T11:32:35.752Z,24.90
2019-03-31T11:35:07.719Z,25.70
2019-03-31T11:37:39.152Z,27.00
2019-03-31T11:40:11.440Z,28.70
2019-03-31T11:42:43.475Z,29.30
2019-03-31T11:45:15.205Z,29.00
2019-03-31T11:47:46.499Z,31.30
2019-03-31T11:50:19.728Z,31.40
2019-03-31T11:52:52.989Z,32.00
2019-03-31T11:55:24.367Z,32.40
2019-03-31T11:57:55.635Z,33.30
2019-03-31T12:00:28.527Z,34.20
2019-03-31T12:02:59.802Z,33.70
2019-03-31T12:05:31.084Z,33.50
2019-03-31T12:08:03.112Z,33.80
2019-03-31T12:10:34.414Z,33.60
2019-03-31T12:13:05.970Z,33.80
2019-03-31T12:15:37.245Z,34.30
2019-03-31T12:18:08.479Z,33.60
2019-03-31T12:20:39.711Z,34.40
2019-03-31T12:23:10.956Z,34.90
2019-03-31T12:25:42.201Z,34.70
2019-03-31T12:28:13.449Z,35.10
2019-03-31T12:30:44.777Z,35.10
2019-03-31T12:33:15.993Z,35.20
2019-03-31T12:35:47.272Z,34.90
2019-03-31T12:38:18.533Z,35.70
2019-03-31T12:40:49.776Z,34.90
2019-03-31T12:43:21.001Z,35.10
2019-03-31T12:45:52.274Z,35.30
2019-03-31T12:48:23.494Z,35.90
2019-03-31T12:50:54.716Z,36.00
2019-03-31T12:53:26.507Z,36.10
2019-03-31T12:56:00.484Z,36.40
2019-03-31T12:58:31.904Z,36.60
2019-03-31T13:01:03.707Z,36.00
2019-03-31T13:03:35.394Z,36.00
2019-03-31T13:06:06.863Z,35.40
2019-03-31T13:08:38.761Z,35.00
2019-03-31T13:11:10.442Z,35.90
2019-03-31T13:13:41.765Z,35.60
2019-03-31T13:16:13.057Z,35.90
2019-03-31T13:18:44.613Z,35.70
2019-03-31T13:21:15.887Z,35.90
2019-03-31T13:23:47.158Z,35.70
2019-03-31T13:26:18.457Z,35.20
2019-03-31T13:28:49.727Z,35.40
2019-03-31T13:31:21.042Z,35.90
2019-03-31T13:33:52.345Z,36.30
2019-03-31T13:36:23.619Z,36.40
2019-03-31T13:38:54.888Z,37.40
2019-03-31T13:41:26.049Z,37.10
2019-03-31T13:43:57.324Z,37.40
2019-03-31T13:46:28.582Z,37.50
2019-03-31T13:48:59.847Z,37.30
2019-03-31T13:51:31.446Z,37.30
2019-03-31T13:54:02.714Z,36.20
2019-03-31T13:56:34.162Z,36.80
2019-03-31T13:59:08.987Z,36.60
2019-03-31T14:01:38.612Z,35.80
2019-03-31T14:04:09.978Z,35.30
2019-03-31T14:06:41.246Z,35.70
2019-03-31T14:09:12.514Z,36.40
2019-03-31T14:11:43.750Z,35.60
2019-03-31T14:14:15.377Z,35.70
2019-03-31T14:16:46.626Z,36.30
2019-03-31T14:19:17.873Z,35.40
2019-03-31T14:21:49.119Z,36.40
2019-03-31T14:24:20.408Z,34.50
2019-03-31T14:26:51.677Z,35.50
2019-03-31T14:29:22.933Z,35.60
2019-03-31T14:31:54.220Z,36.80
2019-03-31T14:34:25.690Z,37.20
2019-03-31T14:36:56.939Z,37.30
2019-03-31T14:39:28.240Z,38.30
2019-03-31T14:41:59.513Z,37.10
2019-03-31T14:44:30.761Z,36.70
2019-03-31T14:47:02.006Z,37.60
2019-03-31T14:49:33.320Z,38.80
2019-03-31T14:52:04.690Z,39.80
2019-03-31T14:54:35.930Z,40.80
2019-03-31T14:57:07.279Z,41.50
2019-03-31T14:59:38.578Z,42.50
2019-03-31T15:02:09.832Z,43.30
2019-03-31T15:04:41.147Z,44.70
2019-03-31T15:07:12.388Z,45.80
2019-03-31T15:09:43.709Z,47.10
2019-03-31T15:12:14.947Z,47.60
2019-03-31T15:14:46.244Z,48.90
2019-03-31T15:17:17.507Z,49.90
2019-03-31T15:19:48.765Z,50.60
2019-03-31T15:22:20.042Z,50.80
2019-03-31T15:24:51.299Z,51.40
2019-03-31T15:27:22.561Z,50.50
2019-03-31T15:29:53.930Z,49.90
2019-03-31T15:32:25.186Z,48.70
2019-03-31T15:34:56.499Z,48.90
2019-03-31T15:37:27.883Z,49.00
2019-03-31T15:39:59.173Z,48.90
2019-03-31T15:42:30.471Z,49.10
2019-03-31T15:45:02.832Z,49.20
2019-03-31T15:47:34.094Z,48.70
2019-03-31T15:50:05.591Z,49.80
2019-03-31T15:52:36.860Z,49.80
2019-03-31T15:55:08.849Z,50.00
2019-03-31T15:57:40.094Z,50.30
2019-03-31T16:00:14.855Z,50.70
2019-03-31T16:02:47.871Z,50.50
2019-03-31T16:05:19.209Z,50.50
2019-03-31T16:07:50.168Z,50.50
2019-03-31T16:10:20.600Z,50.50
2019-03-31T16:12:51.099Z,50.70
2019-03-31T16:15:21.625Z,50.30
2019-03-31T16:17:52.100Z,50.40
2019-03-31T16:20:22.573Z,50.30
2019-03-31T16:22:53.152Z,50.90
2019-03-31T16:25:42.496Z,50.80
2019-03-31T16:28:12.943Z,50.90
2019-03-31T16:30:43.703Z,50.80
2019-03-31T16:33:14.174Z,50.60
2019-03-31T16:35:44.648Z,51.20
2019-03-31T16:38:15.221Z,50.80
2019-03-31T16:40:45.678Z,51.40
2019-03-31T16:43:16.180Z,51.50
2019-03-31T16:45:46.997Z,51.80
2019-03-31T16:48:17.456Z,52.40
2019-03-31T16:50:47.885Z,52.80
2019-03-31T16:53:18.361Z,52.90
2019-03-31T16:55:48.949Z,53.60
2019-03-31T16:58:19.479Z,53.40
2019-03-31T17:00:49.927Z,53.40
2019-03-31T17:03:20.556Z,53.80
2019-03-31T17:05:51.366Z,54.10
2019-03-31T17:08:22.211Z,53.90
2019-03-31T17:10:54.604Z,54.20
2019-03-31T17:13:25.458Z,54.40
2019-03-31T17:15:56.550Z,54.60
2019-03-31T17:18:27.907Z,54.60
2019-03-31T17:20:59.474Z,55.10
2019-03-31T17:23:33.692Z,55.10
2019-03-31T17:26:04.990Z,55.20
2019-03-31T17:28:36.002Z,55.50
2019-03-31T17:31:06.735Z,56.20
2019-03-31T17:33:37.897Z,56.10
2019-03-31T17:36:08.568Z,56.10
2019-03-31T17:38:39.331Z,56.20
2019-03-31T17:41:12.734Z,56.70
2019-03-31T17:43:43.186Z,56.80
2019-03-31T17:46:13.661Z,56.90
2019-03-31T17:48:45.685Z,57.50
2019-03-31T17:51:16.137Z,57.60
2019-03-31T17:53:46.596Z,57.80
2019-03-31T17:56:17.169Z,57.70
2019-03-31T17:58:47.648Z,58.10
2019-03-31T18:01:18.107Z,58.60
2019-03-31T18:03:48.700Z,59.10
2019-03-31T18:06:21.491Z,59.60
2019-03-31T18:08:51.981Z,60.00
2019-03-31T18:11:22.476Z,60.40
2019-03-31T18:13:53.072Z,60.90
2019-03-31T18:16:23.550Z,61.30
2019-03-31T18:18:54.014Z,61.70
2019-03-31T18:21:27.247Z,62.30
2019-03-31T18:23:56.870Z,62.90
2019-03-31T18:26:27.367Z,63.10
2019-03-31T18:28:57.827Z,64.10
2019-03-31T18:31:28.382Z,64.20
2019-03-31T18:33:58.854Z,64.80
2019-03-31T18:36:36.370Z,65.50
2019-03-31T18:39:01.554Z,65.90
2019-03-31T18:41:32.005Z,66.50
2019-03-31T18:44:02.616Z,66.40
2019-03-31T18:46:33.134Z,67.00
2019-03-31T18:49:03.598Z,67.30
2019-03-31T18:51:34.059Z,67.40
2019-03-31T18:54:20.525Z,68.00
2019-03-31T18:57:16.048Z,68.90
2019-03-31T18:59:55.716Z,69.40
2019-03-31T19:02:33.290Z,70.10
2019-03-31T19:05:24.503Z,69.70
2019-03-31T19:08:12.742Z,70.50
2019-03-31T19:10:51.409Z,70.00
2019-03-31T19:13:55.509Z,69.60
2019-03-31T19:16:47.402Z,69.70
2019-03-31T19:19:42.796Z,69.40
2019-03-31T19:22:32.226Z,69.60
2019-03-31T19:25:24.630Z,69.60
2019-03-31T19:28:17.253Z,70.20
2019-03-31T19:30:54.442Z,70.10
2019-03-31T19:33:42.513Z,70.30
2019-03-31T19:36:26.394Z,70.40
2019-03-31T19:39:16.506Z,70.80
2019-03-31T19:42:14.928Z,70.30
2019-03-31T19:45:19.601Z,70.30
2019-03-31T19:48:00.886Z,70.70
2019-03-31T19:50:53.378Z,70.40
2019-03-31T19:53:45.563Z,70.50
2019-03-31T19:56:32.767Z,70.20
2019-03-31T19:59:34.428Z,69.70
2019-03-31T20:02:35.628Z,70.90
2019-03-31T20:05:19.268Z,70.90
2019-03-31T20:07:58.503Z,70.80
2019-03-31T20:10:42.657Z,71.00
2019-03-31T20:13:38.110Z,71.20
2019-03-31T20:16:18.241Z,71.10
2019-03-31T20:19:13.374Z,71.50
2019-03-31T20:21:48.384Z,71.60
2019-03-31T20:24:29.115Z,71.70
2019-03-31T20:27:17.782Z,71.70
2019-03-31T20:30:19.353Z,71.60
2019-03-31T20:32:57.828Z,71.90
2019-03-31T20:35:53.202Z,72.00
2019-03-31T20:38:32.395Z,72.20
2019-03-31T20:41:08.050Z,72.60
2019-03-31T20:43:55.384Z,72.40
2019-03-31T20:46:26.095Z,72.80
2019-03-31T20:48:56.532Z,72.80
2019-03-31T20:51:26.992Z,73.00
2019-03-31T20:53:57.422Z,72.80
2019-03-31T20:56:27.855Z,72.90
2019-03-31T20:58:58.291Z,72.70
2019-03-31T21:01:28.754Z,72.50
2019-03-31T21:03:59.184Z,72.50
2019-03-31T21:06:29.663Z,72.70
2019-03-31T21:09:00.112Z,72.60
2019-03-31T21:11:30.598Z,72.70
2019-03-31T21:14:01.105Z,72.50
2019-03-31T21:16:31.601Z,72.50
2019-03-31T21:19:02.097Z,72.60
2019-03-31T21:21:32.557Z,72.70
2019-03-31T21:24:03.008Z,72.50
2019-03-31T21:26:33.467Z,72.70
2019-03-31T21:29:03.926Z,72.40
2019-03-31T21:31:34.443Z,72.00
2019-03-31T21:34:05.482Z,73.20
2019-03-31T21:36:35.922Z,73.90
2019-03-31T21:39:08.765Z,74.60
2019-03-31T21:41:39.184Z,74.90
2019-03-31T21:44:09.625Z,74.70
2019-03-31T21:46:40.070Z,74.80
2019-03-31T21:49:10.633Z,74.40
2019-03-31T21:51:41.039Z,75.80
2019-03-31T21:54:11.484Z,75.10
2019-03-31T21:56:41.950Z,75.40
2019-03-31T21:59:12.413Z,76.10
2019-03-31T22:01:43.092Z,76.30
2019-03-31T22:04:13.556Z,76.50
2019-03-31T22:06:44.005Z,76.60
2019-03-31T22:09:14.464Z,77.10
2019-03-31T22:11:44.850Z,77.70
2019-03-31T22:14:15.315Z,78.30
2019-03-31T22:16:45.745Z,79.40
2019-03-31T22:19:16.227Z,79.20
2019-03-31T22:21:46.625Z,79.60
2019-03-31T22:24:17.244Z,80.20
2019-03-31T22:26:47.667Z,80.30
2019-03-31T22:29:18.107Z,80.70
2019-03-31T22:31:48.551Z,81.20
2019-03-31T22:34:18.989Z,80.80
2019-03-31T22:36:49.462Z,81.70
2019-03-31T22:39:19.985Z,84.00
2019-03-31T22:41:50.464Z,84.30
2019-03-31T22:44:20.910Z,84.10
2019-03-31T22:46:54.440Z,83.40
2019-03-31T22:49:23.548Z,83.80
2019-03-31T22:51:56.410Z,83.10
2019-03-31T22:54:26.189Z,84.90
2019-03-31T22:56:56.653Z,84.80
2019-03-31T22:59:27.094Z,84.90
2019-03-31T23:01:57.533Z,85.50
2019-03-31T23:04:27.967Z,85.50
2019-03-31T23:06:58.423Z,87.40
2019-03-31T23:09:28.828Z,87.20
2019-03-31T23:11:59.267Z,86.70
2019-03-31T23:14:29.692Z,86.30
2019-03-31T23:17:00.131Z,87.10
2019-03-31T23:19:30.513Z,87.20
2019-03-31T23:22:01.316Z,88.60
2019-03-31T23:24:31.730Z,88.90
2019-03-31T23:27:02.158Z,88.00
2019-03-31T23:29:32.688Z,89.70
2019-03-31T23:32:03.134Z,89.00
2019-03-31T23:34:33.540Z,88.70
2019-03-31T23:37:03.956Z,88.90
2019-03-31T23:39:34.362Z,90.00
2019-03-31T23:42:05.469Z,89.80
2019-03-31T23:44:36.649Z,90.40
2019-03-31T23:47:07.103Z,90.30
2019-03-31T23:49:37.514Z,90.20
2019-03-31T23:52:07.951Z,90.70
2019-03-31T23:54:38.355Z,90.40
2019-03-31T23:57:08.803Z,90.80
2019-03-31T23:59:39.482Z,91.00
